Time;durP1;ratioP1;P1;durP2;ratioP2;P2;SDS_P1;SDS_P2;PMS_P1;PMS_P2;Temp;Humidity;BMP_temperature;BMP_pressure;BME280_temperature;BME280_humidity;BME280_pressure;Samples;Min_cycle;Max_cycle;Signal;HPM_P1;HPM_P2
2023/11/28 00:03:52;;;;;;;4.53;3.67;;;;;;;;;;12886140;22;20500;-69
2023/11/28 00:08:48;;;;;;;4.03;3.60;;;;;;;;;;12886497;22;20045;-69
2023/11/28 00:13:45;;;;;;;4.30;3.90;;;;;;;;;;12887540;22;20091;-70
2023/11/28 00:18:41;;;;;;;3.80;3.40;;;;;;;;;;12881919;22;20030;-70
2023/11/28 00:23:38;;;;;;;4.00;3.60;;;;;;;;;;12886444;22;20046;-69
2023/11/28 00:28:34;;;;;;;4.68;3.55;;;;;;;;;;12886546;22;20045;-69
2023/11/28 00:33:31;;;;;;;4.00;3.60;;;;;;;;;;12887186;22;20922;-68
2023/11/28 00:38:27;;;;;;;4.43;3.63;;;;;;;;;;12886836;22;20053;-69
2023/11/28 00:43:23;;;;;;;4.22;3.83;;;;;;;;;;12886883;22;20677;-69
2023/11/28 00:48:21;;;;;;;4.50;4.00;;;;;;;;;;12886331;22;20054;-69
2023/11/28 00:53:17;;;;;;;4.35;3.92;;;;;;;;;;12880757;22;20022;-69
2023/11/28 00:58:13;;;;;;;4.53;4.13;;;;;;;;;;12886949;22;20054;-68
2023/11/28 01:03:10;;;;;;;4.55;3.90;;;;;;;;;;12885795;22;20026;-68
2023/11/28 01:08:08;;;;;;;4.95;4.45;;;;;;;;;;12886182;22;20088;-69
2023/11/28 01:13:04;;;;;;;4.60;4.15;;;;;;;;;;12883928;22;20018;-69
2023/11/28 01:18:01;;;;;;;4.68;4.13;;;;;;;;;;12886306;22;20027;-68
2023/11/28 01:22:57;;;;;;;4.57;4.18;;;;;;;;;;12878472;22;20102;-68
2023/11/28 01:27:54;;;;;;;5.25;4.47;;;;;;;;;;12885621;22;20029;-68
2023/11/28 01:32:50;;;;;;;5.00;4.55;;;;;;;;;;12859013;22;20395;-68
2023/11/28 01:37:47;;;;;;;5.60;5.00;;;;;;;;;;12884271;22;20152;-69
2023/11/28 01:42:45;;;;;;;5.32;4.82;;;;;;;;;;12885872;22;20495;-68
2023/11/28 01:47:41;;;;;;;6.57;5.50;;;;;;;;;;12885805;22;20399;-68
2023/11/28 01:52:38;;;;;;;5.88;5.38;;;;;;;;;;12884870;22;20429;-68
2023/11/28 01:57:34;;;;;;;5.85;5.25;;;;;;;;;;12886258;22;20606;-69
2023/11/28 02:02:31;;;;;;;9.43;5.13;;;;;;;;;;12880504;22;20030;-68
2023/11/28 02:07:28;;;;;;;5.22;4.72;;;;;;;;;;12882236;22;20037;-69
2023/11/28 02:12:24;;;;;;;5.35;4.80;;;;;;;;;;12884875;22;20475;-68
2023/11/28 02:17:22;;;;;;;6.22;5.03;;;;;;;;;;12885362;22;20467;-68
2023/11/28 02:22:18;;;;;;;4.80;4.40;;;;;;;;;;12878757;22;20026;-69
2023/11/28 02:27:15;;;;;;;5.80;5.30;;;;;;;;;;12884274;22;20023;-68
2023/11/28 02:32:11;;;;;;;4.93;4.53;;;;;;;;;;12884938;22;20019;-68
2023/11/28 02:37:08;;;;;;;5.43;4.88;;;;;;;;;;12884865;22;20027;-68
2023/11/28 02:42:04;;;;;;;4.30;3.90;;;;;;;;;;12885020;22;20030;-68
2023/11/28 02:47:01;;;;;;;5.05;4.65;;;;;;;;;;12857256;22;20482;-68
2023/11/28 02:51:57;;;;;;;4.70;4.30;;;;;;;;;;12885494;22;20498;-68
2023/11/28 02:56:53;;;;;;;4.68;4.28;;;;;;;;;;12883876;22;20912;-68
2023/11/28 03:01:53;;;;;;;4.55;4.05;;;;;;;;;;12886724;22;20491;-68
2023/11/28 03:06:51;;;;;;;4.47;4.10;;;;;;;;;;12888487;22;20351;-69
2023/11/28 03:11:47;;;;;;;4.28;3.97;;;;;;;;;;12882460;22;20018;-68
2023/11/28 03:16:46;;;;;;;4.20;3.80;;;;;;;;;;12886331;22;20372;-68
2023/11/28 03:21:43;;;;;;;4.40;4.00;;;;;;;;;;12861291;22;20027;-67
2023/11/28 03:26:39;;;;;;;3.65;3.35;;;;;;;;;;12882037;22;20464;-67
2023/11/28 03:31:36;;;;;;;5.40;4.90;;;;;;;;;;12887817;22;20022;-68
2023/11/28 03:36:32;;;;;;;5.18;4.72;;;;;;;;;;12887857;22;20073;-68
2023/11/28 03:41:29;;;;;;;6.35;5.50;;;;;;;;;;12888145;22;20023;-69
2023/11/28 03:46:25;;;;;;;5.90;5.40;;;;;;;;;;12861407;22;20022;-69
2023/11/28 03:51:21;;;;;;;5.95;5.43;;;;;;;;;;12887689;22;20364;-69
2023/11/28 03:56:19;;;;;;;6.38;5.78;;;;;;;;;;12887122;22;20022;-69
2023/11/28 04:01:15;;;;;;;6.70;6.10;;;;;;;;;;12886554;22;20073;-69
2023/11/28 04:06:11;;;;;;;6.63;6.03;;;;;;;;;;12888380;22;20084;-69
2023/11/28 04:11:08;;;;;;;6.63;6.03;;;;;;;;;;12886531;22;20034;-69
2023/11/28 04:16:04;;;;;;;6.97;6.28;;;;;;;;;;12888109;22;20022;-68
2023/11/28 04:21:01;;;;;;;6.38;5.78;;;;;;;;;;12884971;22;20438;-69
2023/11/28 04:25:57;;;;;;;8.80;6.72;;;;;;;;;;12871853;22;20029;-69
2023/11/28 04:30:54;;;;;;;7.13;6.53;;;;;;;;;;12885839;22;20349;-68
2023/11/28 04:35:50;;;;;;;7.53;6.82;;;;;;;;;;12886878;22;20069;-72
2023/11/28 04:40:47;;;;;;;6.63;6.13;;;;;;;;;;12888000;22;20402;-72
2023/11/28 04:45:43;;;;;;;6.30;5.75;;;;;;;;;;12887740;22;20865;-70
2023/11/28 04:50:42;;;;;;;7.28;6.57;;;;;;;;;;12885684;22;20496;-72
2023/11/28 04:55:39;;;;;;;6.70;6.10;;;;;;;;;;12886639;22;20023;-72
2023/11/28 05:00:35;;;;;;;6.32;5.72;;;;;;;;;;12852515;22;20014;-73
2023/11/28 05:05:32;;;;;;;8.35;5.80;;;;;;;;;;12880064;22;20039;-73
2023/11/28 05:10:28;;;;;;;5.90;5.40;;;;;;;;;;12885088;22;20086;-72
2023/11/28 05:15:24;;;;;;;6.18;5.68;;;;;;;;;;12885223;22;20076;-75
2023/11/28 05:20:21;;;;;;;6.70;5.85;;;;;;;;;;12883095;22;20026;-74
2023/11/28 05:25:17;;;;;;;6.47;5.93;;;;;;;;;;12882991;22;20023;-74
2023/11/28 05:30:14;;;;;;;6.10;5.60;;;;;;;;;;12881923;22;20025;-74
2023/11/28 05:35:10;;;;;;;7.95;6.28;;;;;;;;;;12888801;22;20094;-75
2023/11/28 05:40:08;;;;;;;7.10;6.50;;;;;;;;;;12880509;22;20046;-73
2023/11/28 05:45:06;;;;;;;7.22;6.53;;;;;;;;;;12883370;22;20023;-75
2023/11/28 05:50:03;;;;;;;6.65;6.05;;;;;;;;;;12883885;22;20029;-75
2023/11/28 05:54:59;;;;;;;7.78;7.00;;;;;;;;;;12883431;22;20019;-75
2023/11/28 06:00:00;;;;;;;7.38;6.68;;;;;;;;;;12856658;22;20484;-75
2023/11/28 06:04:56;;;;;;;7.38;6.78;;;;;;;;;;12856850;22;20092;-75
2023/11/28 06:32:55;;;;;;;9.43;7.15;;;;;;;;;;12828027;22;20015;-75
2023/11/28 06:38:24;;;;;;;6.60;6.00;;;;;;;;;;12802459;22;20559;-74
2023/11/28 06:43:50;;;;;;;7.00;6.40;;;;;;;;;;12871627;22;20023;-75
2023/11/28 07:01:25;;;;;;;;;;;;;;;;;;;;;
2023/11/28 07:06:51;;;;;;;6.10;5.50;;;;;;;;;;12691468;22;20016;-74
2023/11/28 07:11:53;;;;;;;7.25;6.10;;;;;;;;;;12848927;22;20053;-74
2023/11/28 07:23:36;;;;;;;;;;;;;;;;;;;;;
2023/11/28 07:29:08;;;;;;;;;;;;;;;;;;;;;
2023/11/28 07:35:12;;;;;;;;;;;;;;;;;;;;;
2023/11/28 07:45:43;;;;;;;6.18;5.25;;;;;;;;;;12649744;22;19914;-75
2023/11/28 07:50:43;;;;;;;5.85;5.35;;;;;;;;;;12840481;22;20381;-74
2023/11/28 07:55:39;;;;;;;6.70;5.35;;;;;;;;;;12846018;22;20023;-74
2023/11/28 08:00:36;;;;;;;6.07;5.03;;;;;;;;;;12818984;22;20019;-75
2023/11/28 08:05:32;;;;;;;5.97;5.38;;;;;;;;;;12824871;22;20468;-73
2023/11/28 08:10:29;;;;;;;6.80;5.97;;;;;;;;;;12824244;22;20023;-74
2023/11/28 08:15:25;;;;;;;5.75;5.25;;;;;;;;;;12825470;22;20027;-74
2023/11/28 08:20:21;;;;;;;6.75;5.45;;;;;;;;;;12824657;22;20896;-74
2023/11/28 08:25:18;;;;;;;5.60;4.55;;;;;;;;;;12824708;22;20019;-75
2023/11/28 08:30:15;;;;;;;7.40;5.30;;;;;;;;;;12823466;22;20058;-74
2023/11/28 08:35:12;;;;;;;5.70;5.03;;;;;;;;;;12823221;22;20015;-74
2023/11/28 08:40:08;;;;;;;9.25;5.10;;;;;;;;;;12823757;22;20023;-74
2023/11/28 08:45:05;;;;;;;6.57;5.32;;;;;;;;;;12824116;22;20023;-74
2023/11/28 08:50:03;;;;;;;5.75;5.10;;;;;;;;;;12824493;22;20061;-74
2023/11/28 08:55:00;;;;;;;7.47;5.20;;;;;;;;;;12825062;22;20419;-74
2023/11/28 08:59:56;;;;;;;6.13;5.50;;;;;;;;;;12820884;22;20031;-74
2023/11/28 09:04:52;;;;;;;5.90;5.30;;;;;;;;;;12818220;22;20023;-73
2023/11/28 09:09:49;;;;;;;7.30;5.28;;;;;;;;;;12823746;22;20110;-74
2023/11/28 09:14:47;;;;;;;5.50;4.82;;;;;;;;;;12822974;22;20027;-73
2023/11/28 09:31:19;;;;;;;10.65;5.28;;;;;;;;;;12627329;23;20720;-74
2023/11/28 09:37:29;;;;;;;5.55;4.88;;;;;;;;;;12679872;22;20716;-73
2023/11/28 09:43:05;;;;;;;6.55;5.03;;;;;;;;;;12666288;22;20024;-74
2023/11/28 09:48:45;;;;;;;4.93;4.43;;;;;;;;;;12848084;22;20675;-74
2023/11/28 09:54:05;;;;;;;5.38;4.88;;;;;;;;;;12869097;22;20007;-73
2023/11/28 09:59:04;;;;;;;6.40;5.13;;;;;;;;;;12885848;22;20028;-74
2023/11/28 10:04:01;;;;;;;4.85;4.45;;;;;;;;;;12879579;22;20070;-74
2023/11/28 10:09:00;;;;;;;5.75;4.97;;;;;;;;;;12885579;22;20019;-74
2023/11/28 10:13:56;;;;;;;8.57;5.25;;;;;;;;;;12858447;22;20022;-74
2023/11/28 10:18:53;;;;;;;6.18;5.50;;;;;;;;;;12885991;22;20053;-73
2023/11/28 10:23:49;;;;;;;5.90;5.30;;;;;;;;;;12885909;22;20029;-75
2023/11/28 10:28:47;;;;;;;7.50;5.22;;;;;;;;;;12885867;22;20527;-75
2023/11/28 10:33:43;;;;;;;5.18;4.68;;;;;;;;;;12885096;22;20019;-74
2023/11/28 10:38:40;;;;;;;4.35;3.95;;;;;;;;;;12857924;22;20033;-74
2023/11/28 10:43:36;;;;;;;5.53;5.00;;;;;;;;;;12885694;22;20030;-75
2023/11/28 10:48:33;;;;;;;5.38;4.88;;;;;;;;;;12885376;22;20460;-74
2023/11/28 11:05:06;;;;;;;4.60;4.20;;;;;;;;;;12523117;23;20028;-73
2023/11/28 11:15:40;;;;;;;5.70;5.20;;;;;;;;;;12819263;22;20418;-74
2023/11/28 11:20:48;;;;;;;4.95;4.45;;;;;;;;;;12817097;22;20062;-73
2023/11/28 11:25:56;;;;;;;5.80;5.20;;;;;;;;;;12813036;22;20034;-73
2023/11/28 11:30:56;;;;;;;8.48;5.05;;;;;;;;;;12825494;22;20019;-73
2023/11/28 11:36:13;;;;;;;5.40;4.90;;;;;;;;;;12824685;22;20023;-73
2023/11/28 11:41:11;;;;;;;8.23;5.00;;;;;;;;;;12824829;22;20019;-74
2023/11/28 11:46:09;;;;;;;6.38;5.80;;;;;;;;;;12825252;22;20920;-74
2023/11/28 11:51:05;;;;;;;7.68;5.25;;;;;;;;;;12825305;22;20127;-74
2023/11/28 11:56:02;;;;;;;9.27;5.22;;;;;;;;;;12826018;22;20073;-73
2023/11/28 12:00:59;;;;;;;7.68;6.25;;;;;;;;;;12825195;22;20106;-74
2023/11/28 12:05:57;;;;;;;5.47;4.95;;;;;;;;;;12824372;22;20047;-74
2023/11/28 12:16:12;;;;;;;5.50;4.95;;;;;;;;;;12777915;22;20055;-74
2023/11/28 12:21:09;;;;;;;6.18;5.28;;;;;;;;;;12838303;22;20029;-74
2023/11/28 12:26:05;;;;;;;9.20;5.35;;;;;;;;;;12888222;22;20019;-74
2023/11/28 12:31:02;;;;;;;7.82;5.25;;;;;;;;;;12886736;22;20046;-74
2023/11/28 12:36:00;;;;;;;5.57;5.00;;;;;;;;;;12887134;22;20073;-74
2023/11/28 12:40:57;;;;;;;5.43;5.00;;;;;;;;;;12887413;22;20679;-74
2023/11/28 12:46:29;;;;;;;6.40;5.80;;;;;;;;;;12887156;22;20023;-74
2023/11/28 13:27:11;;;;;;;5.68;4.40;;;;;;;;;;12885650;22;20014;-75
2023/11/28 13:32:09;;;;;;;5.30;4.80;;;;;;;;;;12886116;22;20558;-74
2023/11/28 13:37:06;;;;;;;9.13;4.65;;;;;;;;;;12886051;22;20391;-76
2023/11/28 14:16:09;;;;;;;5.63;5.03;;;;;;;;;;12801371;22;20023;-74
2023/11/28 14:26:49;;;;;;;5.30;4.80;;;;;;;;;;12781786;22;20028;-74
2023/11/28 14:31:46;;;;;;;11.88;5.03;;;;;;;;;;12817967;22;20029;-75
2023/11/28 14:36:42;;;;;;;7.53;5.10;;;;;;;;;;12885338;22;20109;-75
2023/11/28 14:58:57;;;;;;;7.85;4.90;;;;;;;;;;12742613;22;20509;-74
2023/11/28 15:04:14;;;;;;;5.55;4.90;;;;;;;;;;12696853;22;20032;-74
2023/11/28 15:09:35;;;;;;;10.07;5.50;;;;;;;;;;12627701;22;20031;-74
2023/11/28 15:15:12;;;;;;;7.43;4.97;;;;;;;;;;12741892;22;20026;-74
2023/11/28 15:31:31;;;;;;;8.38;4.70;;;;;;;;;;12835717;22;20034;-74
2023/11/28 15:36:31;;;;;;;6.13;4.97;;;;;;;;;;12860403;22;20027;-71
2023/11/28 15:41:28;;;;;;;5.38;4.80;;;;;;;;;;12859009;22;20076;-73
2023/11/28 15:46:24;;;;;;;7.95;6.35;;;;;;;;;;12881124;22;20468;-73
2023/11/28 15:51:21;;;;;;;11.07;6.15;;;;;;;;;;12884004;22;20022;-74
2023/11/28 15:56:35;;;;;;;6.93;5.82;;;;;;;;;;12892751;22;20519;-74
2023/11/28 16:01:31;;;;;;;10.73;5.75;;;;;;;;;;12889903;22;20062;-73
2023/11/28 16:06:28;;;;;;;7.70;6.03;;;;;;;;;;12888405;22;20088;-74
2023/11/28 16:11:24;;;;;;;5.82;5.32;;;;;;;;;;12880308;22;20913;-72
2023/11/28 16:16:21;;;;;;;6.60;5.63;;;;;;;;;;12887422;22;20023;-73
2023/11/28 16:21:21;;;;;;;7.70;5.45;;;;;;;;;;12879249;22;20034;-72
2023/11/28 16:26:18;;;;;;;6.18;5.57;;;;;;;;;;12884970;22;20041;-72
2023/11/28 16:31:19;;;;;;;7.70;5.28;;;;;;;;;;12883786;22;20054;-72
2023/11/28 16:36:15;;;;;;;6.32;5.35;;;;;;;;;;12880608;22;20105;-71
2023/11/28 16:41:14;;;;;;;7.88;5.85;;;;;;;;;;12879961;22;20031;-73
2023/11/28 16:46:11;;;;;;;9.48;5.82;;;;;;;;;;12882234;22;20026;-72
2023/11/28 16:51:10;;;;;;;6.55;5.63;;;;;;;;;;12873248;22;20025;-73
2023/11/28 16:56:07;;;;;;;6.10;5.53;;;;;;;;;;12848976;22;20026;-73
2023/11/28 17:01:07;;;;;;;8.15;5.97;;;;;;;;;;12875633;22;20057;-72
2023/11/28 17:06:07;;;;;;;5.78;5.18;;;;;;;;;;12878286;22;20026;-72
2023/11/28 17:11:03;;;;;;;6.93;5.28;;;;;;;;;;12883919;22;20022;-73
2023/11/28 17:16:00;;;;;;;6.07;5.47;;;;;;;;;;12885692;22;20050;-72
2023/11/28 17:20:56;;;;;;;7.47;5.90;;;;;;;;;;12881482;22;20045;-73
2023/11/28 17:25:53;;;;;;;6.75;5.68;;;;;;;;;;12881266;22;20345;-72
2023/11/28 17:30:50;;;;;;;7.10;5.60;;;;;;;;;;12881328;22;20022;-73
2023/11/28 17:35:46;;;;;;;9.40;5.90;;;;;;;;;;12886357;22;20412;-74
2023/11/28 17:40:42;;;;;;;10.57;6.60;;;;;;;;;;12857501;22;20023;-72
2023/11/28 17:45:39;;;;;;;8.05;5.78;;;;;;;;;;12882574;22;20015;-72
2023/11/28 17:50:35;;;;;;;7.35;6.03;;;;;;;;;;12883939;22;20022;-73
2023/11/28 17:55:37;;;;;;;8.57;5.70;;;;;;;;;;12886803;22;20364;-72
2023/11/28 18:00:34;;;;;;;8.00;5.68;;;;;;;;;;12879226;22;20399;-72
2023/11/28 18:05:35;;;;;;;6.72;6.13;;;;;;;;;;12880300;22;20022;-72
2023/11/28 18:10:32;;;;;;;9.50;5.70;;;;;;;;;;12880914;22;20096;-72
2023/11/28 18:15:28;;;;;;;8.98;5.88;;;;;;;;;;12884336;22;20360;-72
2023/11/28 18:20:28;;;;;;;8.70;6.22;;;;;;;;;;12855662;22;20038;-73
2023/11/28 18:25:25;;;;;;;5.93;5.38;;;;;;;;;;12883348;22;20090;-74
2023/11/28 18:30:21;;;;;;;8.40;5.45;;;;;;;;;;12881635;22;20443;-73
2023/11/28 18:35:18;;;;;;;5.85;5.35;;;;;;;;;;12884715;22;20456;-73
2023/11/28 18:40:14;;;;;;;6.22;5.72;;;;;;;;;;12885315;22;20076;-73
2023/11/28 18:45:11;;;;;;;6.80;5.80;;;;;;;;;;12880897;22;20026;-73
2023/11/28 18:50:07;;;;;;;6.85;5.55;;;;;;;;;;12881638;22;20042;-74
2023/11/28 18:55:04;;;;;;;6.90;6.22;;;;;;;;;;12884971;22;20027;-73
2023/11/28 19:00:00;;;;;;;7.55;6.10;;;;;;;;;;12884140;22;20023;-73
2023/11/28 19:04:56;;;;;;;7.60;6.00;;;;;;;;;;12876051;22;20042;-73
2023/11/28 19:09:53;;;;;;;8.93;5.88;;;;;;;;;;12881608;22;20083;-71
2023/11/28 19:14:49;;;;;;;9.50;5.82;;;;;;;;;;12884766;22;20029;-74
2023/11/28 19:19:46;;;;;;;6.72;5.63;;;;;;;;;;12883946;22;20027;-74
2023/11/28 19:24:42;;;;;;;8.32;6.40;;;;;;;;;;12881300;22;20337;-73
2023/11/28 19:29:39;;;;;;;8.27;5.90;;;;;;;;;;12879798;22;20042;-73
2023/11/28 19:34:35;;;;;;;8.80;6.75;;;;;;;;;;12883977;22;20086;-73
2023/11/28 19:39:31;;;;;;;7.30;6.43;;;;;;;;;;12883715;22;20027;-73
2023/11/28 19:44:28;;;;;;;7.50;6.40;;;;;;;;;;12881298;22;20022;-73
2023/11/28 19:49:24;;;;;;;8.02;6.18;;;;;;;;;;12885309;22;20047;-73
2023/11/28 19:54:21;;;;;;;10.13;6.75;;;;;;;;;;12887813;22;20018;-73
2023/11/28 19:59:17;;;;;;;10.38;6.05;;;;;;;;;;12886007;22;20022;-73
2023/11/28 20:04:14;;;;;;;12.35;6.78;;;;;;;;;;12883662;22;20023;-73
2023/11/28 20:09:11;;;;;;;8.05;6.47;;;;;;;;;;12883743;22;20064;-73
2023/11/28 20:14:07;;;;;;;9.05;6.30;;;;;;;;;;12886270;22;20469;-74
2023/11/28 20:19:03;;;;;;;10.48;7.28;;;;;;;;;;12886103;22;20085;-74
2023/11/28 20:24:00;;;;;;;10.88;7.28;;;;;;;;;;12883414;22;20027;-73
2023/11/28 20:28:56;;;;;;;8.23;6.82;;;;;;;;;;12876442;22;20463;-73
2023/11/28 20:33:52;;;;;;;9.27;6.60;;;;;;;;;;12887148;22;20046;-73
2023/11/28 20:38:49;;;;;;;7.80;7.00;;;;;;;;;;12886365;22;20022;-72
2023/11/28 20:43:46;;;;;;;9.82;6.95;;;;;;;;;;12857137;22;20026;-73
2023/11/28 20:48:42;;;;;;;10.13;7.05;;;;;;;;;;12883926;22;20083;-73
2023/11/28 20:53:39;;;;;;;9.13;7.10;;;;;;;;;;12859034;22;20025;-73
2023/11/28 20:58:35;;;;;;;9.23;7.15;;;;;;;;;;12884714;22;20023;-73
2023/11/28 21:03:31;;;;;;;11.38;7.68;;;;;;;;;;12882395;22;20019;-73
2023/11/28 21:08:28;;;;;;;10.15;7.00;;;;;;;;;;12883917;22;20611;-73
2023/11/28 21:13:24;;;;;;;9.77;7.43;;;;;;;;;;12885343;22;20030;-74
2023/11/28 21:18:21;;;;;;;7.97;7.10;;;;;;;;;;12884555;22;20023;-73
2023/11/28 21:23:17;;;;;;;10.50;8.05;;;;;;;;;;12878662;22;20022;-70
2023/11/28 21:28:14;;;;;;;13.27;7.80;;;;;;;;;;12882526;22;20425;-67
2023/11/28 21:33:12;;;;;;;10.73;8.55;;;;;;;;;;12841979;22;20027;-68
2023/11/28 21:38:09;;;;;;;11.15;8.43;;;;;;;;;;12856233;22;20041;-70
2023/11/28 21:43:06;;;;;;;9.52;8.18;;;;;;;;;;12879679;22;20019;-69
2023/11/28 21:48:02;;;;;;;9.50;7.38;;;;;;;;;;12880781;22;20034;-69
2023/11/28 21:53:13;;;;;;;8.93;7.60;;;;;;;;;;12881208;22;20038;-69
2023/11/28 21:58:10;;;;;;;14.13;7.47;;;;;;;;;;12881598;22;20033;-69
2023/11/28 22:03:08;;;;;;;11.38;8.18;;;;;;;;;;12882304;22;20088;-69
2023/11/28 22:08:05;;;;;;;9.07;7.80;;;;;;;;;;12883623;22;20026;-69
2023/11/28 22:13:01;;;;;;;13.05;8.32;;;;;;;;;;12884320;22;20054;-69
2023/11/28 22:17:58;;;;;;;8.73;7.45;;;;;;;;;;12885458;22;20027;-69
2023/11/28 22:22:55;;;;;;;10.43;8.27;;;;;;;;;;12882498;22;20046;-69
2023/11/28 22:27:52;;;;;;;9.50;7.68;;;;;;;;;;12882776;22;20027;-69
2023/11/28 22:32:48;;;;;;;9.10;8.10;;;;;;;;;;12884271;22;20030;-68
2023/11/28 22:37:46;;;;;;;10.63;8.45;;;;;;;;;;12880097;22;20026;-69
2023/11/28 22:42:43;;;;;;;11.57;8.70;;;;;;;;;;12881985;22;20026;-69
2023/11/28 22:47:40;;;;;;;10.93;9.25;;;;;;;;;;12882365;22;20026;-69
2023/11/28 22:52:37;;;;;;;11.68;9.20;;;;;;;;;;12882715;22;20041;-69
2023/11/28 22:57:33;;;;;;;17.33;9.15;;;;;;;;;;12884497;22;20032;-68
2023/11/28 23:02:29;;;;;;;13.60;10.05;;;;;;;;;;12854547;22;20019;-68
2023/11/28 23:07:26;;;;;;;10.65;9.40;;;;;;;;;;12882904;22;20121;-68
2023/11/28 23:12:23;;;;;;;11.52;9.80;;;;;;;;;;12882824;22;20027;-69
2023/11/28 23:17:19;;;;;;;14.85;10.00;;;;;;;;;;12886583;22;20475;-68
2023/11/28 23:22:15;;;;;;;11.75;9.10;;;;;;;;;;12884831;22;20027;-69
2023/11/28 23:27:12;;;;;;;12.10;9.32;;;;;;;;;;12885433;22;20050;-69
2023/11/28 23:32:08;;;;;;;13.18;10.30;;;;;;;;;;12886609;22;20023;-69
2023/11/28 23:37:05;;;;;;;13.35;9.77;;;;;;;;;;12888351;22;20033;-70
2023/11/28 23:42:01;;;;;;;12.88;9.57;;;;;;;;;;12885431;22;20031;-69
2023/11/28 23:46:57;;;;;;;12.00;10.30;;;;;;;;;;12878076;22;20027;-69
2023/11/28 23:51:56;;;;;;;15.85;10.55;;;;;;;;;;12885121;22;20035;-69
2023/11/28 23:56:54;;;;;;;16.95;11.05;;;;;;;;;;12881712;22;20041;-69
